Date,TemperatureHighF,TemperatureAvgF,TemperatureLowF,DewpointHighF,DewpointAvgF,DewpointLowF,HumidityHigh,HumidityAvg,HumidityLow,PressureMaxIn,PressureMinIn,WindSpeedMaxMPH,WindSpeedAvgMPH,GustSpeedMaxMPH,PrecipitationSumIn
2014-1-1,50.9,30.5,19.4,28.2,20.8,15.1,84,71,29,30.39,30.12,6,1,0,0.00
2014-1-2,42.3,33.2,21.7,37.6,26.3,8.4,84,76,55,30.25,29.83,18,2,0,0.41
2014-1-3,32.2,21.2,14.4,10.8,5.1,-2.6,74,51,24,30.49,30.26,7,3,0,0.00
2014-1-4,49.1,27.7,10.6,25.9,14.1,3.7,84,61,21,30.41,30.19,14,2,0,0.00
2014-1-5,55.0,44.1,30.4,44.6,34.9,26.2,84,71,50,30.19,29.70,12,3,0,0.19
2014-1-6,33.6,16.4,6.1,27.2,2.2,-11.8,79,54,28,30.52,29.87,8,4,0,0.00
2014-1-7,21.2,8.7,-1.3,1.1,-6.5,-13.1,71,51,28,30.65,30.48,7,2,0,0.01
2014-1-8,37.0,19.8,4.8,16.9,6.0,-2.8,72,58,25,30.62,30.46,5,1,0,0.00
2014-1-9,52.7,33.4,21.0,26.9,18.5,10.5,80,58,19,30.54,30.35,6,1,0,0.00
2014-1-10,51.3,42.6,37.2,43.3,36.5,26.5,84,79,61,30.35,29.97,3,1,0,0.09
2014-1-11,63.5,51.3,41.9,50.6,38.4,22.0,84,65,21,29.98,29.64,14,3,0,1.32
2014-1-12,58.5,40.5,27.1,35.2,26.8,21.5,84,63,25,30.16,29.98,5,2,0,0.00
2014-1-13,43.9,37.5,28.2,39.4,33.0,24.0,84,84,81,30.14,29.89,3,1,0,0.52
2014-1-14,57.6,44.8,32.5,41.9,32.3,15.8,84,67,21,30.00,29.84,6,2,0,0.18
2014-1-15,47.5,37.5,23.9,34.1,19.4,7.2,84,50,22,30.15,29.97,6,2,0,0.00
2014-1-16,44.1,29.9,15.3,15.8,10.3,4.2,79,48,20,30.14,29.91,7,2,0,0.01
2014-1-17,44.8,33.4,22.5,22.3,13.8,3.9,77,46,25,30.15,29.90,11,4,0,0.00
2014-1-18,41.2,30.6,16.0,10.9,5.3,-0.8,71,37,17,30.20,29.94,8,3,0,0.00
2014-1-19,50.2,36.7,24.4,22.5,17.3,8.3,81,47,27,30.11,29.92,8,2,0,0.00
2014-1-20,63.0,37.6,20.7,27.6,18.9,12.2,84,56,14,30.05,29.86,7,2,0,0.00
2014-1-21,44.2,30.5,16.3,28.9,18.7,-2.4,82,62,40,30.15,29.76,14,4,0,0.05
2014-1-22,30.2,19.1,5.4,3.3,-5.9,-15.7,65,36,13,30.23,30.07,7,2,0,0.00
2014-1-23,30.6,18.3,10.4,11.0,-3.1,-17.9,72,43,14,30.65,30.21,7,3,0,0.01
2014-1-24,29.8,13.9,0.1,-0.9,-7.8,-22.3,68,42,9,30.72,30.22,6,2,0,0.00
2014-1-25,38.8,29.2,16.2,14.3,0.1,-11.1,51,29,19,30.22,29.85,11,4,0,0.00
2014-1-26,57.4,36.7,13.3,20.7,12.4,5.0,70,41,19,30.02,29.82,18,4,0,0.00
2014-1-27,47.8,38.0,20.5,27.1,4.0,-35.7,54,27,3,30.32,29.83,10,4,0,0.00
2014-1-28,23.0,18.0,8.1,10.1,-0.4,-10.8,66,46,24,30.37,30.28,7,2,0,0.00
2014-1-29,29.8,9.9,-9.4,0.3,-8.6,-18.2,69,48,14,30.47,30.35,6,1,0,0.01
2014-1-30,41.9,17.2,-3.6,11.6,-1.2,-12.7,69,50,11,30.41,30.13,6,2,0,0.04
2014-1-31,54.5,29.5,14.2,18.2,12.0,7.2,73,53,17,30.29,30.14,5,1,0,0.00
2014-2-1,57.2,36.4,19.0,33.5,20.8,7.3,84,60,15,30.22,30.07,7,2,0,0.00
2014-2-2,50.5,40.2,29.3,45.4,35.6,25.1,84,84,81,30.14,29.96,4,1,0,1.13
2014-2-3,45.7,40.3,36.0,36.2,32.1,29.2,84,73,59,30.25,29.88,7,3,0,1.51
2014-2-4,51.4,41.8,32.9,39.7,33.7,26.5,84,74,55,30.26,29.90,6,2,0,0.07
2014-2-5,47.7,40.1,28.2,42.9,31.1,15.7,84,70,56,30.38,29.83,10,4,0,0.37
2014-2-6,36.0,30.3,24.8,18.8,16.3,13.9,71,56,46,30.44,30.33,8,2,0,0.00
2014-2-7,41.9,30.2,19.4,21.2,18.0,14.3,82,62,36,30.43,30.29,5,1,0,0.00
2014-2-8,47.1,38.4,32.7,28.8,23.6,19.7,66,55,43,30.31,30.15,5,1,0,0.00
2014-2-9,47.3,41.2,36.7,33.1,30.1,27.4,72,65,57,30.19,30.08,7,2,0,0.00
2014-2-10,42.4,35.7,28.6,27.4,21.8,14.1,66,57,42,30.28,30.15,7,2,0,0.00
2014-2-11,47.5,33.1,25.5,14.3,8.4,-7.0,55,39,10,30.34,30.22,7,3,0,0.00
2014-2-12,37.6,33.1,28.9,27.5,19.2,10.1,84,58,38,30.28,29.89,7,2,0,0.04
2014-2-13,51.3,36.7,27.7,28.9,22.7,-4.4,84,63,10,29.88,29.80,7,2,0,0.14
2014-2-14,51.4,38.7,22.3,35.6,25.9,17.7,84,62,38,29.92,29.70,8,3,0,0.09
2014-2-15,41.7,34.3,25.7,36.0,18.2,10.8,80,53,29,30.17,29.71,7,3,0,0.01
2014-2-16,61.7,40.7,24.4,24.4,20.5,15.7,75,49,17,30.21,30.05,8,2,0,0.00
2014-2-17,64.6,44.1,26.2,47.3,28.2,20.9,84,60,20,30.26,29.95,14,3,0,0.30
2014-2-18,63.9,45.6,27.1,35.9,25.2,6.0,84,53,10,30.27,30.00,6,2,0,0.01
2014-2-19,73.4,61.4,47.1,54.6,46.6,34.4,83,61,32,30.04,29.88,10,3,0,0.39
2014-2-20,71.8,60.3,48.2,55.4,50.5,43.1,83,71,55,30.03,29.78,13,4,0,0.00
2014-2-21,66.9,49.1,30.2,54.3,27.5,-1.3,84,53,9,30.15,29.73,10,3,0,1.08
2014-2-22,68.7,43.9,26.1,30.7,14.3,-37.8,83,48,1,30.22,30.01,10,2,0,0.00
2014-2-23,72.1,51.0,31.6,31.8,22.4,9.1,72,41,9,30.10,29.90,9,2,0,0.00
2014-2-24,55.8,41.8,27.9,29.0,11.1,-32.7,67,39,2,30.25,30.08,8,2,0,0.00
2014-2-25,56.7,41.3,26.6,23.5,11.4,-5.2,66,35,9,30.16,30.02,8,2,0,0.00
2014-2-26,41.2,33.5,21.0,19.5,9.4,-2.7,57,37,19,30.12,29.94,8,3,0,0.00
2014-2-27,50.5,29.4,12.7,10.6,-0.4,-28.5,68,37,3,30.11,29.95,7,3,0,0.00
2014-2-28,54.9,34.3,15.4,20.6,5.4,-15.7,73,40,5,30.20,30.09,6,2,0,0.00
2014-3-1,60.1,47.8,35.2,34.2,27.9,17.4,64,48,25,30.27,30.17,7,2,0,0.00
2014-3-2,72.5,57.2,46.6,47.1,39.7,34.2,66,53,38,30.21,29.91,15,3,0,0.00
2014-3-3,50.7,33.2,25.7,40.1,26.7,17.9,83,77,67,30.30,29.87,10,3,0,1.35
2014-3-4,43.7,32.3,25.5,28.9,22.7,17.1,83,68,54,30.29,30.15,8,2,0,0.01
2014-3-5,60.1,40.2,26.6,33.0,26.4,14.7,84,63,17,30.25,30.05,8,2,0,0.00
2014-3-6,58.1,43.7,28.6,31.8,22.7,11.2,84,50,21,30.19,30.01,8,2,0,0.00
2014-3-7,66.2,50.1,37.0,34.6,29.1,21.8,79,46,26,30.06,29.91,7,2,0,0.00
2014-3-8,72.1,50.4,29.7,37.1,27.2,17.1,84,50,13,30.16,29.98,8,2,0,0.00
2014-3-9,66.2,50.7,36.3,37.0,29.0,11.6,79,49,12,30.24,30.06,6,2,0,0.00
2014-3-10,75.2,49.7,30.4,40.2,30.1,22.5,79,53,15,30.15,29.85,10,2,0,0.00
2014-3-11,79.2,55.5,32.0,43.9,34.6,27.7,84,53,17,29.93,29.67,8,2,0,0.00
2014-3-12,70.0,53.1,35.8,56.0,39.8,17.0,82,61,44,30.04,29.48,20,5,0,0.03
2014-3-13,51.8,38.5,27.1,22.6,9.6,-13.7,65,37,6,30.26,30.05,8,3,0,0.00
2014-3-14,67.6,45.2,21.7,29.4,15.0,5.4,71,39,9,30.28,30.00,11,3,0,0.00
2014-3-15,71.2,52.9,33.6,36.6,29.9,23.9,78,46,17,30.13,29.98,6,2,0,0.00
2014-3-16,54.9,47.3,43.2,47.5,40.4,32.5,84,77,64,30.02,29.69,7,2,0,0.78
2014-3-17,45.3,40.2,37.9,40.8,34.9,33.1,84,81,75,29.89,29.71,6,2,0,0.07
2014-3-18,55.0,44.7,37.6,43.7,38.1,33.2,84,78,65,30.02,29.87,5,1,0,0.01
2014-3-19,55.8,50.2,36.7,44.4,41.3,32.3,84,72,60,30.07,30.00,9,4,0,0.00
2014-3-20,65.5,48.9,33.8,42.4,20.8,-18.0,84,46,3,30.19,30.03,8,3,0,0.00
2014-3-21,69.6,48.0,25.0,30.1,17.4,-14.9,83,43,3,30.19,29.95,8,2,0,0.00
2014-3-22,71.8,53.3,33.4,40.4,30.9,26.3,79,47,20,30.07,29.95,5,2,0,0.01
2014-3-23,59.9,48.4,33.8,39.8,29.4,15.0,84,52,17,30.27,30.00,14,3,0,0.42
2014-3-24,59.0,40.6,22.8,27.3,12.0,-44.5,84,45,2,30.30,30.03,8,2,0,0.00
2014-3-25,45.3,37.9,26.6,24.0,13.7,-3.0,59,38,17,30.25,29.96,11,3,0,0.00
2014-3-26,52.3,34.6,19.6,14.3,2.5,-33.6,62,33,2,30.37,30.22,9,2,0,0.00
2014-3-27,70.2,47.1,23.0,23.2,3.4,-35.9,66,31,1,30.33,30.04,12,3,0,0.00
2014-3-28,64.6,56.8,49.8,53.9,48.4,16.6,84,75,19,30.12,30.00,6,2,0,0.17
2014-3-29,59.0,50.8,41.5,54.2,45.1,33.8,84,81,74,30.11,29.75,10,2,0,0.83
2014-3-30,65.1,48.2,37.0,33.9,27.2,10.7,77,51,12,30.22,30.09,8,3,0,0.00
2014-3-31,75.7,49.7,27.0,34.3,18.8,-33.2,84,47,1,30.24,30.03,6,2,0,0.01
2014-4-1,83.8,60.6,41.2,44.1,31.0,0.8,80,43,4,30.15,29.96,10,2,0,0.00
2014-4-2,84.4,62.7,39.4,43.8,33.4,19.0,75,41,11,30.13,29.95,8,2,0,0.00
2014-4-3,81.9,69.5,59.0,58.6,52.7,42.7,84,57,37,30.04,29.84,15,4,0,0.00
2014-4-4,68.0,63.2,54.5,60.9,54.8,41.8,84,74,62,29.99,29.76,12,4,0,0.48
2014-4-5,63.3,50.5,35.4,41.7,31.8,25.2,83,52,24,30.13,30.00,8,3,0,0.00
2014-4-6,69.3,52.2,33.6,47.7,34.7,29.0,84,57,23,30.10,29.89,5,2,0,0.16
2014-4-7,63.9,57.0,51.6,57.6,50.7,43.5,84,80,64,29.97,29.57,9,3,0,1.52
2014-4-8,66.0,54.5,42.8,43.6,37.6,28.4,82,56,26,29.86,29.71,9,3,0,0.01
2014-4-9,70.3,55.4,41.0,44.4,34.1,20.1,83,52,16,30.15,29.86,10,2,0,0.01
2014-4-10,77.0,56.0,32.0,40.9,31.1,23.8,84,48,14,30.26,30.06,13,3,0,0.00
2014-4-11,78.3,62.8,42.8,51.4,38.5,32.8,77,44,21,30.21,30.02,10,3,0,0.00
2014-4-12,82.8,65.9,47.5,56.6,48.2,42.0,84,58,24,30.22,29.99,7,2,0,0.02
2014-4-13,84.2,70.3,50.5,53.4,47.0,39.9,83,46,22,30.11,29.88,14,4,0,0.00
2014-4-14,72.3,66.6,61.0,57.9,53.7,47.1,84,65,41,29.94,29.74,10,4,0,0.25
2014-4-15,63.9,45.6,32.0,57.8,35.7,21.9,83,69,43,30.21,29.71,11,4,0,0.37
2014-4-16,62.8,43.2,26.8,30.4,21.0,8.6,84,50,12,30.35,30.16,12,3,0,0.00
2014-4-17,70.9,49.9,30.4,37.9,26.8,15.7,84,51,13,30.42,30.22,7,2,0,0.00
2014-4-18,65.1,53.7,44.4,45.0,37.6,30.1,81,58,29,30.35,30.17,5,1,0,0.00
2014-4-19,70.5,57.2,45.7,47.8,39.1,31.2,82,56,25,30.19,30.11,9,2,0,0.00
2014-4-20,79.7,58.7,37.2,48.1,36.1,18.3,84,53,10,30.27,30.07,5,2,0,0.01
2014-4-21,82.6,62.3,40.6,47.6,40.3,33.4,84,52,17,30.18,29.92,7,2,0,0.00
2014-4-22,74.7,62.5,56.1,63.3,55.2,47.5,84,77,61,29.93,29.77,5,2,0,0.31
2014-4-23,74.7,57.0,38.5,49.2,31.0,-2.9,84,49,5,30.04,29.87,7,2,0,0.00
2014-4-24,81.5,59.2,34.7,46.1,32.8,-1.3,84,48,4,30.07,29.84,7,2,0,0.00
2014-4-25,75.2,63.5,48.4,59.6,50.5,43.8,84,64,41,30.00,29.75,9,2,0,0.03
2014-4-26,85.1,62.1,40.5,53.2,40.7,28.2,84,55,13,30.08,29.88,5,1,0,0.00
2014-4-27,87.3,66.4,45.0,60.2,50.3,40.5,84,61,29,30.01,29.80,8,2,0,0.15
2014-4-28,84.0,70.6,60.3,67.5,61.1,55.4,84,73,51,29.91,29.69,9,3,0,0.21
2014-4-29,82.6,72.1,64.4,65.6,60.9,54.4,84,70,40,29.80,29.63,11,4,0,0.73
2014-4-30,71.6,65.0,56.1,64.6,58.8,51.3,84,81,62,29.93,29.76,9,2,0,0.61
2014-5-1,71.1,57.8,43.9,52.2,41.8,29.2,84,60,22,30.01,29.90,5,2,0,0.00
2014-5-2,72.1,55.6,38.8,47.3,38.6,32.8,84,58,25,30.03,29.87,7,2,0,0.00
2014-5-3,81.5,59.6,37.9,45.7,39.3,30.3,84,54,16,30.02,29.89,8,2,0,0.00
2014-5-4,89.8,66.2,43.3,52.8,44.3,35.4,84,54,15,30.09,29.89,9,2,0,0.02
2014-5-5,89.6,70.0,49.6,57.1,49.9,44.0,84,55,21,30.02,29.81,9,2,0,0.00
2014-5-6,89.1,70.2,50.2,58.4,51.7,45.3,84,58,24,29.99,29.82,6,2,0,0.00
2014-5-7,88.2,69.1,49.6,59.2,50.3,42.9,84,57,22,30.08,29.96,7,2,0,0.00
2014-5-8,89.2,70.0,50.2,58.8,51.9,41.1,84,59,19,30.18,30.03,9,2,0,0.00
2014-5-9,78.4,66.9,58.5,66.9,60.4,53.7,84,80,67,30.09,30.00,8,2,0,0.02
2014-5-10,79.9,65.7,59.0,67.2,58.8,54.2,84,80,54,30.09,29.95,12,2,0,0.59
2014-5-11,85.6,68.5,57.9,67.9,60.7,53.1,84,77,50,30.16,30.01,5,1,0,0.01
2014-5-12,89.8,74.1,60.1,69.6,62.6,55.2,84,70,38,30.15,30.01,6,1,0,0.00
2014-5-13,90.0,74.4,59.7,69.6,62.7,54.9,84,69,36,30.13,29.98,6,1,0,0.00
2014-5-14,86.2,72.5,61.3,69.3,60.7,55.0,84,69,39,30.10,29.87,7,2,0,0.90
2014-5-15,65.3,58.2,44.2,60.3,51.0,39.7,84,78,54,30.12,29.85,5,1,0,0.75
2014-5-16,68.0,50.8,38.5,49.6,38.0,24.9,84,67,22,30.16,29.98,6,1,0,0.04
2014-5-17,63.0,51.4,39.9,49.0,43.9,35.5,84,76,58,30.23,30.14,6,1,0,0.01
2014-5-18,72.9,58.4,49.8,50.0,46.5,43.7,84,67,36,30.23,30.13,6,2,0,0.01
2014-5-19,77.7,60.9,47.7,56.0,49.0,43.1,84,68,34,30.28,30.13,5,1,0,0.01
2014-5-20,84.6,68.5,48.7,60.9,51.8,44.1,84,59,30,30.26,30.04,9,2,0,0.00
2014-5-21,88.2,69.8,52.0,65.8,55.3,47.3,84,64,28,30.16,29.97,8,2,0,0.00
2014-5-22,90.5,73.9,59.7,67.3,61.3,54.9,84,68,42,30.13,29.93,7,2,0,0.02
2014-5-23,87.3,72.5,61.7,67.0,58.5,53.3,84,65,33,30.09,29.96,6,1,0,0.00
2014-5-24,84.0,68.4,54.1,59.1,49.8,35.8,84,58,19,30.15,30.00,6,2,0,0.00
2014-5-25,74.1,64.1,53.2,65.3,57.4,48.5,84,79,53,30.16,30.07,4,1,0,0.12
2014-5-26,83.1,70.4,60.3,67.4,62.0,55.4,84,76,56,30.20,30.05,4,1,0,0.02
2014-5-27,88.0,74.2,61.9,69.4,62.5,57.0,84,69,43,30.12,29.93,6,1,0,0.00
2014-5-28,90.5,74.3,59.7,69.0,61.0,54.6,84,67,30,30.05,29.89,6,1,0,0.03
2014-5-29,89.2,71.8,61.7,68.9,62.9,56.8,84,75,44,30.05,29.93,8,1,0,0.82
2014-5-30,87.4,74.0,63.1,70.6,64.0,58.2,84,73,46,30.06,29.93,6,1,0,0.01
2014-5-31,91.2,75.3,63.1,70.3,64.3,58.2,84,71,45,30.11,29.93,6,1,0,0.00
2014-6-1,82.0,74.5,65.5,68.8,61.9,54.0,84,67,43,30.17,30.08,8,2,0,0.01
2014-6-2,86.5,71.5,56.8,62.3,57.3,52.0,84,64,36,30.21,30.04,5,1,0,0.01
2014-6-3,86.5,70.9,58.1,67.7,61.3,53.3,84,73,49,30.14,29.94,6,1,0,0.00
2014-6-4,91.0,75.6,60.8,70.8,64.6,55.9,84,71,43,29.99,29.76,8,1,0,0.17
2014-6-5,80.4,72.1,65.8,70.7,65.7,60.8,84,81,63,29.90,29.74,5,1,0,0.18
2014-6-6,87.6,74.8,65.8,68.9,64.8,60.8,84,72,47,29.95,29.82,5,1,0,0.00
2014-6-7,90.3,75.3,61.9,67.6,62.1,57.0,84,67,37,30.00,29.82,5,1,0,0.00
2014-6-8,88.2,75.1,65.7,68.4,61.1,52.0,84,64,38,29.96,29.82,9,2,0,0.00
2014-6-9,81.3,69.1,55.4,66.8,60.0,50.6,84,74,57,29.97,29.84,6,1,0,0.01
2014-6-10,88.5,71.4,62.8,71.1,63.6,57.9,84,77,53,29.96,29.79,8,1,0,0.52
2014-6-11,80.2,70.7,63.9,69.0,64.0,59.0,84,80,64,29.92,29.76,12,2,0,0.48
2014-6-12,85.3,70.8,62.1,67.9,61.8,57.2,84,75,40,29.91,29.77,4,1,0,0.39
2014-6-13,76.6,68.8,64.0,69.3,63.2,59.1,84,82,66,29.97,29.87,5,1,0,0.45
2014-6-14,84.4,71.1,59.4,63.8,58.2,50.3,84,67,31,30.05,29.92,6,2,0,0.01
2014-6-15,94.3,74.4,57.7,67.8,59.7,52.9,84,64,32,30.12,29.97,5,1,0,0.00
2014-6-16,93.4,78.8,63.5,71.8,63.8,54.3,84,64,29,30.19,30.00,5,1,0,0.00
2014-6-17,94.1,78.2,63.7,71.1,64.8,58.8,84,67,34,30.19,29.99,4,1,0,0.00
2014-6-18,94.1,77.7,65.1,73.1,64.3,58.6,84,66,32,30.13,29.98,6,1,0,0.00
2014-6-19,93.0,74.3,64.2,72.5,64.9,59.3,84,74,44,30.14,30.04,5,1,0,0.05
2014-6-20,91.4,75.3,63.5,72.1,66.2,58.6,84,75,43,30.10,29.93,7,1,0,0.09
2014-6-21,88.2,73.9,65.7,72.4,65.6,60.7,84,76,52,30.00,29.86,5,1,0,0.32
2014-6-22,89.6,75.7,64.8,71.7,64.3,58.6,84,71,36,29.97,29.80,5,1,0,0.00
2014-6-23,92.8,77.6,65.7,69.4,63.1,58.4,84,64,35,30.04,29.87,9,1,0,0.08
2014-6-24,88.2,74.0,63.1,72.1,65.0,58.2,84,75,54,30.06,29.90,7,2,0,0.05
2014-6-25,90.7,77.3,66.9,72.5,65.4,60.3,84,69,39,30.02,29.88,6,2,0,0.24
2014-6-26,90.3,76.6,63.0,69.5,63.0,56.7,84,66,35,30.06,29.89,4,1,0,0.00
2014-6-27,89.6,77.1,68.7,70.8,66.6,63.7,84,71,51,30.08,29.95,5,1,0,0.00
2014-6-28,87.4,73.7,66.9,71.3,66.5,61.9,84,79,48,30.18,30.06,5,1,0,0.15
2014-6-29,87.1,73.1,67.1,72.5,66.6,62.1,84,80,60,30.19,30.06,4,1,0,0.62
2014-6-30,82.4,73.3,67.3,73.7,67.3,62.3,84,82,69,30.09,29.91,5,1,0,0.63
2014-7-1,92.8,80.2,67.3,74.1,69.4,62.3,84,71,49,29.99,29.81,6,1,0,0.00
2014-7-2,95.0,81.4,68.9,72.3,64.9,59.4,84,61,36,29.97,29.86,4,1,0,0.00
2014-7-3,87.4,74.3,61.3,66.4,54.9,44.4,84,56,25,30.10,29.96,7,2,0,0.00
2014-7-4,84.4,69.4,54.9,59.5,51.7,42.9,84,59,24,30.22,30.09,7,2,0,0.00
2014-7-5,95.5,70.6,51.6,58.8,50.9,42.1,84,56,16,30.26,30.09,7,1,0,0.01
2014-7-6,92.3,74.0,56.3,63.9,54.5,44.7,84,57,20,30.17,29.97,5,1,0,0.00
2014-7-7,92.7,75.5,59.7,66.2,56.9,46.8,84,58,22,30.04,29.88,8,2,0,0.01
2014-7-8,90.0,75.8,64.6,70.5,64.5,57.9,84,70,48,30.01,29.85,7,2,0,0.35
2014-7-9,86.4,74.3,68.7,70.4,66.2,63.1,84,77,52,30.02,29.91,6,1,0,0.62
2014-7-10,87.8,75.5,68.0,70.7,65.2,59.6,84,73,40,30.09,29.95,5,1,0,0.00
2014-7-11,92.7,76.8,65.1,68.6,60.8,48.7,84,63,24,30.16,30.01,6,2,0,0.00
2014-7-12,94.5,77.5,63.1,69.6,63.3,55.6,84,65,28,30.19,30.03,5,1,0,0.00
2014-7-13,92.7,78.7,65.8,71.1,65.5,60.8,84,67,37,30.12,29.93,8,1,0,0.00
2014-7-14,95.4,79.8,66.4,72.5,65.4,61.3,84,65,35,30.01,29.79,10,2,0,0.01
2014-7-15,85.8,75.4,61.2,70.0,61.5,48.8,84,64,29,29.93,29.77,5,1,0,0.04
2014-7-16,82.2,67.2,52.9,56.4,48.0,37.1,84,56,21,30.03,29.88,7,2,0,0.01
2014-7-17,84.9,65.9,50.9,58.0,50.1,41.7,84,63,24,30.08,29.95,6,1,0,0.04
2014-7-18,72.1,64.9,61.3,66.0,59.8,56.3,84,83,76,30.13,30.06,4,1,0,0.53
2014-7-19,73.9,68.5,63.3,68.8,63.5,58.4,84,84,84,30.10,29.98,5,1,0,1.97
2014-7-20,86.2,74.7,68.5,71.1,66.9,63.5,84,78,57,30.05,29.91,4,1,0,0.11
2014-7-21,88.0,76.8,69.8,72.2,68.1,64.2,84,75,47,30.09,29.96,5,1,0,0.00
2014-7-22,91.4,78.0,67.6,72.9,67.1,62.6,84,71,45,30.12,29.96,4,1,0,0.00
2014-7-23,85.8,76.7,69.8,72.5,68.4,64.7,84,76,57,30.08,29.90,5,1,0,0.01
2014-7-24,89.4,76.0,64.9,71.1,64.7,58.0,84,70,40,30.01,29.83,5,1,0,0.00
2014-7-25,93.9,68.3,57.6,63.9,57.0,50.4,84,71,23,30.08,29.91,5,1,0,0.00
2014-7-26,90.7,73.4,57.4,66.0,59.0,52.6,84,65,34,30.05,29.90,5,1,0,0.01
2014-7-27,94.5,81.6,70.0,74.2,67.4,64.9,84,65,39,30.02,29.75,10,2,0,0.01
2014-7-28,87.4,73.9,63.3,70.4,59.8,50.7,84,65,30,29.98,29.83,8,1,0,0.06
2014-7-29,81.3,68.1,55.0,63.3,50.9,36.4,84,60,20,30.09,29.96,8,1,0,0.00
2014-7-30,80.2,67.0,52.2,58.2,53.4,43.1,84,66,27,30.10,30.00,4,0,0,0.00
2014-7-31,84.9,69.5,57.0,62.6,56.3,50.8,84,67,32,30.10,29.98,7,1,0,0.00
2014-8-1,88.5,74.1,60.4,65.4,59.4,53.2,84,64,33,30.09,29.94,6,1,0,0.00
2014-8-2,89.2,75.8,68.0,69.4,63.7,56.0,84,69,36,30.09,29.95,7,1,0,0.03
2014-8-3,88.7,73.7,61.5,66.6,59.1,51.1,84,65,29,30.12,29.97,6,2,0,0.02
2014-8-4,89.6,71.7,55.0,63.2,53.1,39.4,84,59,18,30.12,29.94,8,2,0,0.01
2014-8-5,91.9,72.7,56.3,63.8,54.7,43.8,84,60,20,30.09,29.94,4,1,0,0.01
2014-8-6,95.9,77.1,61.0,65.6,59.3,52.1,84,60,24,30.05,29.88,5,1,0,0.00
2014-8-7,92.5,77.2,65.1,69.5,61.0,53.1,84,62,27,30.02,29.88,7,2,0,0.00
2014-8-8,85.8,73.5,69.4,71.2,66.5,61.6,84,79,61,30.04,29.91,4,1,0,0.81
2014-8-9,88.2,76.4,67.8,73.7,68.3,62.8,84,77,55,30.03,29.86,7,1,0,0.11
2014-8-10,87.3,78.0,72.0,74.1,70.0,66.9,84,77,61,29.99,29.89,6,1,0,0.05
2014-8-11,89.8,76.3,69.6,74.1,68.5,64.5,84,78,56,29.99,29.81,7,2,0,0.57
2014-8-12,90.3,76.5,64.2,73.3,65.6,59.3,84,71,37,29.95,29.76,5,1,0,0.08
2014-8-13,82.2,68.8,55.2,60.8,55.0,50.1,84,65,37,30.07,29.95,8,2,0,0.00
2014-8-14,85.3,68.4,53.1,61.3,54.0,46.4,84,65,28,30.10,29.92,5,1,0,0.00
2014-8-15,87.8,70.3,55.9,64.0,57.1,50.5,84,67,30,30.07,29.91,6,1,0,0.00
2014-8-16,87.3,70.2,60.3,66.1,60.9,55.4,84,74,40,30.06,29.93,4,0,0,0.00
2014-8-17,88.9,73.5,64.9,69.4,65.2,59.9,84,76,47,30.02,29.90,4,1,0,0.38
2014-8-18,88.3,74.5,68.0,72.7,67.4,63.0,84,79,56,29.94,29.76,7,2,0,0.01
2014-8-19,92.7,76.8,67.3,72.0,66.0,62.3,84,72,40,29.91,29.77,4,1,0,0.00
2014-8-20,90.5,72.8,66.6,75.2,65.3,57.6,84,78,44,30.13,29.89,7,1,0,0.08
2014-8-21,94.6,76.9,64.4,74.8,65.3,59.5,84,70,34,30.13,29.97,5,1,0,0.01
2014-8-22,95.5,75.8,67.1,74.7,67.5,62.1,84,77,39,30.08,29.95,3,1,0,0.00
2014-8-23,93.2,77.2,68.4,74.5,68.2,63.4,84,75,41,30.01,29.84,6,1,0,0.00
2014-8-24,91.8,78.6,69.6,74.8,69.0,64.5,84,74,44,29.99,29.84,7,1,0,0.00
2014-8-25,87.3,77.3,68.4,71.1,65.6,60.9,84,69,46,30.06,29.94,6,1,0,0.00
2014-8-26,90.0,74.9,63.3,67.5,61.4,56.8,84,67,36,30.14,29.97,5,1,0,0.00
2014-8-27,90.3,74.6,61.7,68.0,59.6,51.0,84,65,27,30.10,29.95,6,1,0,0.01
2014-8-28,94.5,75.7,62.2,68.1,61.5,57.3,84,66,31,30.06,29.89,6,1,0,0.00
2014-8-29,94.6,73.3,66.7,71.9,64.0,50.6,84,75,25,30.06,29.95,4,1,0,0.00
2014-8-30,92.3,73.9,63.9,70.9,64.2,59.0,84,74,38,30.12,29.97,13,1,0,1.34
2014-8-31,83.1,73.1,66.4,72.5,66.9,61.4,84,81,68,30.13,30.02,7,1,0,0.19
2014-9-1,93.2,77.9,67.1,75.5,66.5,62.1,84,71,38,30.11,29.95,8,1,0,0.02
2014-9-2,93.2,78.8,67.1,72.9,65.9,60.6,84,68,38,30.07,29.87,7,2,0,0.46
2014-9-3,86.4,75.4,69.3,72.0,67.6,64.3,84,77,56,30.05,29.93,5,1,0,0.04
2014-9-4,93.2,77.1,70.3,72.0,67.5,62.8,84,74,37,30.12,30.00,7,1,0,0.00
2014-9-5,87.3,75.5,67.5,73.5,68.0,62.5,84,78,59,30.16,29.98,4,1,0,0.00
2014-9-6,91.6,77.3,69.1,73.6,65.9,62.3,84,70,42,30.07,29.88,6,1,0,0.01
2014-9-7,87.3,73.9,64.6,69.9,64.1,59.7,84,73,43,30.04,29.90,9,2,0,0.00
2014-9-8,90.0,73.4,61.9,70.0,63.6,57.0,84,73,42,30.06,29.91,4,1,0,0.00
2014-9-9,88.2,74.8,68.4,70.3,66.4,63.4,84,76,47,30.10,29.96,4,1,0,0.02
2014-9-10,90.1,75.1,65.3,70.0,64.7,60.3,84,72,44,30.06,29.89,7,1,0,0.00
2014-9-11,92.3,75.6,69.3,73.8,68.2,64.3,84,79,48,30.03,29.90,5,1,0,0.15
2014-9-12,84.7,75.3,68.4,72.3,68.1,63.4,84,79,61,30.06,29.92,4,1,0,0.00
2014-9-13,73.9,68.6,63.7,63.9,60.6,55.9,84,76,64,30.20,30.03,6,2,0,0.00
2014-9-14,81.1,67.5,57.2,66.9,59.4,52.4,84,76,60,30.20,30.08,6,1,0,0.00
2014-9-15,79.7,70.3,62.4,68.0,63.7,57.5,84,80,66,30.19,30.04,5,1,0,0.00
2014-9-16,83.1,71.8,60.3,67.8,63.5,55.4,84,76,58,30.11,29.96,6,1,0,0.00
2014-9-17,80.2,64.1,52.2,57.9,51.5,45.9,84,68,33,30.03,29.87,7,1,0,0.01
2014-9-18,82.4,66.4,56.1,60.0,52.1,41.4,84,66,24,30.03,29.89,6,1,0,0.00
2014-9-19,86.0,67.9,51.3,61.4,54.6,46.6,84,66,35,30.09,29.95,5,1,0,0.00
2014-9-20,88.2,69.7,54.9,63.3,55.6,49.4,84,66,28,30.16,29.95,5,1,0,0.00
2014-9-21,85.1,69.0,55.9,68.8,59.7,51.1,84,74,42,30.02,29.85,6,1,0,0.27
2014-9-22,77.4,61.5,47.8,55.1,45.5,36.3,84,61,24,30.19,29.99,7,2,0,0.02
2014-9-23,79.9,60.4,45.7,51.6,44.3,34.2,84,62,21,30.25,30.12,6,2,0,0.00
2014-9-24,81.1,61.6,46.6,57.1,46.8,38.8,84,65,23,30.31,30.16,8,1,0,0.00
2014-9-25,84.4,64.5,48.4,58.9,51.8,43.8,84,67,34,30.27,30.08,7,1,0,0.03
2014-9-26,84.9,69.3,56.5,64.4,56.9,51.7,84,68,35,30.19,30.04,8,1,0,0.00
2014-9-27,83.7,68.8,60.4,64.4,58.1,52.3,84,71,34,30.17,30.05,5,1,0,0.00
2014-9-28,81.7,69.2,59.2,63.0,57.8,52.9,84,70,38,30.16,30.01,5,1,0,0.00
2014-9-29,84.4,70.2,60.6,65.9,59.7,52.8,84,72,35,30.04,29.85,7,1,0,0.10
2014-9-30,84.9,66.4,55.9,65.7,56.6,50.8,84,74,33,29.98,29.81,5,1,0,0.00
2014-10-1,86.2,66.8,55.2,62.4,53.9,45.6,84,68,26,30.01,29.89,4,1,0,0.00
2014-10-2,88.2,67.7,53.1,61.8,54.2,48.4,84,67,28,30.11,29.91,7,1,0,0.00
2014-10-3,79.3,69.9,58.1,66.1,62.3,53.3,84,77,55,29.94,29.76,8,2,0,0.69
2014-10-4,64.6,51.9,37.2,53.3,32.1,20.2,84,53,20,30.02,29.84,6,2,0,0.01
2014-10-5,70.3,49.5,30.6,42.4,30.8,19.8,84,57,18,30.06,29.84,9,2,0,0.00
2014-10-6,70.2,56.5,42.1,59.4,49.1,37.6,84,77,59,29.99,29.85,11,2,0,0.60
2014-10-7,75.0,63.7,57.4,65.5,58.0,52.6,84,82,69,30.03,29.87,8,2,0,1.01
2014-10-8,84.4,68.6,54.7,64.9,54.9,39.7,84,68,21,30.12,29.96,5,2,0,0.08
2014-10-9,78.1,62.3,49.6,66.4,55.1,45.0,84,78,56,30.16,30.00,5,1,0,0.05
2014-10-10,74.5,67.2,60.8,68.6,62.1,55.9,84,84,80,30.05,29.94,4,1,0,0.24
2014-10-11,78.8,69.8,64.9,69.5,63.2,59.9,84,80,66,30.03,29.93,6,2,0,0.04
2014-10-12,74.7,66.7,61.5,68.5,61.6,56.6,84,84,81,30.06,29.96,3,0,0,0.71
2014-10-13,81.5,70.5,63.7,67.1,62.6,58.8,84,77,57,30.09,29.96,11,2,0,0.12
2014-10-20,67.6,57.0,46.6,50.7,46.7,42.0,84,70,45,30.02,29.94,5,0,0,0.00
2014-10-21,72.9,54.7,40.6,53.4,39.3,30.3,84,62,21,30.11,29.92,9,1,0,0.02
2014-10-22,63.9,48.0,33.1,44.6,34.3,28.8,84,63,30,30.23,30.10,9,2,0,0.00
2014-10-23,66.2,47.3,31.5,43.8,35.0,27.2,84,67,28,30.23,30.03,9,1,0,0.00
2014-10-24,71.2,51.9,40.8,46.9,38.6,28.3,84,66,21,30.13,29.96,6,1,0,0.00
2014-10-25,77.2,53.2,35.1,51.5,40.9,30.8,84,68,29,30.13,29.94,4,0,0,0.00
2014-10-26,81.9,58.9,43.9,59.5,46.5,39.4,84,69,26,30.05,29.90,5,1,0,0.00
2014-10-27,84.7,60.4,46.0,63.6,50.9,41.4,84,74,33,30.11,29.94,5,1,0,0.00
2014-10-28,78.1,62.4,48.0,62.8,53.1,43.4,84,73,49,30.11,29.98,10,2,0,0.00
2014-10-29,66.2,54.9,40.3,57.2,45.8,35.9,84,74,34,30.13,30.01,6,2,0,0.55
2014-10-30,65.8,46.0,32.0,43.7,33.0,25.6,84,67,23,30.15,29.95,6,1,0,0.00
2014-10-31,54.9,42.8,33.6,45.2,35.9,29.3,84,77,62,30.06,29.90,7,1,0,0.01
2014-11-1,42.4,38.7,36.3,32.2,30.4,25.4,80,72,59,30.34,30.00,9,4,0,0.00
2014-11-2,55.6,36.1,22.6,29.9,20.5,7.3,84,61,15,30.45,30.33,8,2,0,0.00
2014-11-3,67.3,42.0,24.6,35.9,24.2,6.6,84,60,9,30.49,30.29,6,1,0,0.00
2014-11-4,72.9,48.5,32.5,41.6,26.2,-3.9,84,55,5,30.38,30.15,9,2,0,0.00
2014-11-5,55.0,50.9,44.8,48.7,42.5,34.5,84,73,60,30.26,30.10,3,0,0,0.09
2014-11-6,72.5,57.2,46.2,56.1,40.3,21.7,84,58,20,30.14,29.88,12,3,0,0.13
2014-11-7,54.9,43.5,30.4,30.8,27.4,25.2,84,55,34,30.22,30.06,7,2,0,0.00
2014-11-8,62.1,43.6,29.1,40.4,30.8,24.0,84,66,25,30.10,29.89,7,1,0,0.00
2014-11-9,63.7,43.3,29.7,41.8,32.0,25.5,84,69,26,30.10,29.90,4,1,0,0.00
2014-11-10,70.0,44.8,29.3,45.8,31.1,19.8,84,66,15,30.12,29.92,7,1,0,0.00
2014-11-11,72.7,49.9,30.4,46.3,37.0,26.2,84,66,30,30.08,29.88,7,1,0,0.00
2014-11-12,56.8,44.9,38.1,47.9,33.8,26.6,77,65,56,30.23,29.96,7,2,0,0.00
2014-11-13,41.2,35.4,27.9,26.6,21.0,11.2,63,55,47,30.31,30.19,7,2,0,0.00
2014-11-14,39.6,28.4,18.3,15.3,7.8,1.1,75,44,21,30.39,30.29,7,2,0,0.00
2014-11-15,49.8,31.7,20.1,22.1,12.4,7.7,74,47,23,30.45,30.23,7,2,0,0.00
2014-11-16,43.0,38.8,31.3,35.9,31.4,23.0,84,75,63,30.28,29.93,3,0,0,0.60
2014-11-17,44.8,36.9,25.7,40.3,29.1,12.9,84,74,55,30.23,29.71,10,2,0,0.86
2014-11-18,37.2,25.6,14.2,16.5,5.5,-8.6,74,47,14,30.41,30.21,7,2,0,0.00
2014-11-19,48.2,29.2,10.8,16.3,9.8,4.2,76,49,21,30.42,30.16,11,3,0,0.00
2014-11-20,57.2,40.0,24.8,23.1,17.0,7.3,84,44,14,30.32,30.12,8,2,0,0.00
2014-11-21,55.2,33.4,21.0,26.9,12.2,-15.5,84,55,5,30.48,30.32,8,2,0,0.00
2014-11-22,63.3,38.9,21.6,31.8,21.9,16.2,84,57,16,30.49,30.19,5,1,0,0.00
2014-11-23,61.5,49.6,41.4,56.3,40.6,27.8,84,72,44,30.19,29.55,13,2,0,0.72
2014-11-24,73.6,61.1,43.2,56.7,44.9,27.7,83,59,24,30.04,29.61,13,6,0,0.00
2014-11-25,61.0,44.3,29.1,37.5,26.1,15.2,84,55,17,30.18,30.00,5,1,0,0.00
2014-11-26,56.7,44.6,33.1,36.3,20.9,6.9,84,42,14,30.10,30.00,6,2,0,0.02
2014-11-27,45.3,37.7,31.8,36.5,25.0,14.9,84,61,48,30.46,30.03,8,2,0,0.12
2014-11-28,46.8,32.0,21.2,19.0,14.1,3.9,80,51,18,30.47,30.26,5,1,0,0.00
2014-11-29,53.6,35.9,20.8,28.8,21.5,16.7,84,61,27,30.30,30.13,9,1,0,0.00
2014-11-30,66.0,53.3,32.4,48.5,42.0,28.1,84,67,49,30.30,30.15,8,3,0,0.00
2014-12-1,67.5,53.3,41.2,57.6,47.7,36.7,84,82,70,30.37,30.25,5,2,0,0.19
2014-12-2,57.7,51.8,46.9,52.9,47.1,42.3,84,84,84,30.33,30.20,5,1,0,0.38
2014-12-3,66.0,55.5,43.5,53.2,48.0,37.5,84,76,60,30.31,30.18,7,2,0,0.01
2014-12-4,57.4,48.0,42.6,46.9,41.4,36.7,84,78,65,30.34,30.22,4,1,0,0.00
2014-12-5,61.7,52.7,47.1,54.6,47.8,42.5,84,83,77,30.34,30.20,4,1,0,0.02
2014-12-6,59.4,51.6,43.2,54.6,46.6,37.8,84,83,80,30.39,30.10,13,2,0,1.32
2014-12-7,51.3,41.8,31.5,38.1,31.2,25.9,84,68,38,30.48,30.32,11,3,0,0.00
2014-12-8,54.7,40.2,31.5,37.8,28.9,20.4,84,68,27,30.37,30.19,5,1,0,0.00
2014-12-9,47.7,40.1,33.8,38.9,34.1,29.5,84,79,64,30.23,30.09,5,1,0,0.07
2014-12-10,43.7,38.5,28.4,32.9,29.5,22.7,84,70,56,30.25,30.18,7,2,0,0.01
2014-12-11,48.4,31.8,22.5,26.7,19.9,11.4,84,66,24,30.32,30.18,7,2,0,0.00
2014-12-12,53.8,31.0,17.8,26.5,16.9,2.4,84,63,12,30.41,30.28,5,1,0,0.00
2014-12-13,48.2,30.7,19.4,30.4,22.7,15.4,84,74,46,30.36,30.22,5,1,0,0.00
2014-12-14,45.5,30.4,19.9,33.1,24.5,15.9,84,79,61,30.29,30.15,7,1,0,0.00
2014-12-15,47.7,34.9,19.4,38.7,28.8,15.4,84,79,61,30.16,29.97,5,1,0,0.02
2014-12-16,54.3,47.1,43.2,47.5,40.0,36.5,84,76,67,30.21,29.91,7,2,0,0.34
2014-12-17,47.8,40.5,28.2,37.2,33.0,24.0,84,75,59,30.29,30.18,5,1,0,0.00
2014-12-18,47.8,37.6,26.8,33.0,28.9,22.6,84,72,50,30.27,30.14,5,1,0,0.00
2014-12-19,47.8,35.8,24.6,31.2,23.5,17.9,84,64,31,30.26,30.15,6,1,0,0.00
2014-12-20,48.9,38.5,26.4,32.6,28.2,22.2,84,68,44,30.28,30.17,4,1,0,0.01
2014-12-21,52.5,36.9,21.6,36.9,28.3,17.5,84,72,50,30.30,30.10,5,1,0,0.00
2014-12-22,59.0,48.2,43.3,43.8,40.0,36.1,84,74,55,30.10,29.85,5,1,0,0.31
2014-12-23,52.5,49.6,46.9,47.8,44.9,42.3,84,84,84,29.92,29.77,5,1,0,0.65
2014-12-24,57.6,50.9,43.5,52.8,46.2,39.0,84,84,83,29.91,29.55,7,2,0,0.62
2014-12-25,53.2,41.3,27.9,38.8,31.9,23.7,84,71,38,30.28,29.91,7,2,0,0.01
2014-12-26,53.6,36.1,24.8,38.4,28.8,20.7,84,76,42,30.40,30.26,4,1,0,0.00
2014-12-27,56.5,42.9,33.1,43.4,37.0,28.8,84,80,58,30.35,30.14,3,0,0,0.01
2014-12-28,54.0,49.9,46.2,49.3,45.2,41.6,84,84,84,30.13,30.04,3,1,0,0.57
2014-12-29,49.8,44.7,40.5,44.6,40.1,36.1,84,84,80,30.21,30.08,4,1,0,0.20
2014-12-30,44.6,36.9,25.2,35.9,30.8,21.1,84,79,60,30.53,30.20,5,1,0,0.03
2014-12-31,41.0,30.5,21.7,26.6,18.8,0.3,84,66,19,30.55,30.43,6,1,0,0.01
2015-1-1,44.2,32.0,19.2,27.4,20.2,15.2,84,65,33,30.46,30.28,4,0,0,0.02
2015-1-2,47.7,42.0,38.8,38.8,33.3,26.3,84,72,58,30.39,30.27,6,1,0,0.03